Time;durP1;ratioP1;P1;durP2;ratioP2;P2;SDS_P1;SDS_P2;PMS_P1;PMS_P2;Temp;Humidity;BMP_temperature;BMP_pressure;BME280_temperature;BME280_humidity;BME280_pressure;Samples;Min_cycle;Max_cycle;Signal;HPM_P1;HPM_P2
2022/01/08 00:00:08;;;;;;;363.03;109.27;;;;;;;6.20;96.60;99983.09;342565;28;802;-73
2022/01/08 00:00:18;;;;;;;361.42;107.38;;;;;;;6.22;97.08;99978.75;343770;28;1322;-73
2022/01/08 00:00:29;;;;;;;360.38;108.22;;;;;;;6.24;96.51;99979.56;341102;28;1969;-73
2022/01/08 00:00:39;;;;;;;360.27;107.13;;;;;;;6.21;96.93;99976.16;341146;29;1409;-73
2022/01/08 00:00:50;;;;;;;363.80;109.38;;;;;;;6.22;97.16;99968.34;342445;28;885;-73
2022/01/08 00:01:01;;;;;;;364.80;108.45;;;;;;;6.23;97.00;99980.44;343700;28;1380;-73
2022/01/08 00:01:11;;;;;;;364.97;109.13;;;;;;;6.22;97.15;99978.75;342567;28;848;-72
2022/01/08 00:01:22;;;;;;;362.90;108.27;;;;;;;6.23;96.97;99970.06;342499;28;1442;-72
2022/01/08 00:01:32;;;;;;;362.92;109.93;;;;;;;6.23;96.73;99975.25;339843;29;1009;-72
2022/01/08 00:01:43;;;;;;;363.43;109.73;;;;;;;6.24;96.88;99971.78;340493;28;1189;-72
2022/01/08 00:01:53;;;;;;;364.60;110.47;;;;;;;6.26;96.65;99974.34;343915;28;1266;-72
2022/01/08 00:02:03;;;;;;;362.07;107.90;;;;;;;6.27;96.87;99981.25;342265;28;1215;-73
2022/01/08 00:02:15;;;;;;;360.85;107.25;;;;;;;6.26;96.80;99977.81;341345;28;1588;-72
2022/01/08 00:02:25;;;;;;;361.20;107.38;;;;;;;6.28;97.12;99977.78;338465;28;818;-72
2022/01/08 00:02:36;;;;;;;361.45;108.63;;;;;;;6.28;96.86;99967.38;344305;28;1334;-73
2022/01/08 00:02:48;;;;;;;360.57;109.83;;;;;;;6.25;97.05;99970.88;342649;28;1035;-73
2022/01/08 00:02:59;;;;;;;361.27;110.30;;;;;;;6.26;96.94;99980.41;343792;28;1386;-73
2022/01/08 00:03:09;;;;;;;360.27;107.83;;;;;;;6.26;97.19;99972.59;341335;29;1020;-73
2022/01/08 00:03:19;;;;;;;361.58;106.03;;;;;;;6.26;97.19;99969.16;341015;29;1331;-73
2022/01/08 00:03:30;;;;;;;360.27;104.70;;;;;;;6.25;96.94;99968.28;342477;28;1309;-73
2022/01/08 00:03:40;;;;;;;358.33;104.28;;;;;;;6.24;97.00;99971.78;341108;28;1324;-74
2022/01/08 00:03:51;;;;;;;360.23;106.67;;;;;;;6.25;96.84;99972.63;338741;29;823;-73
2022/01/08 00:04:02;;;;;;;361.88;108.57;;;;;;;6.26;96.75;99971.75;340829;28;1330;-73
2022/01/08 00:04:12;;;;;;;361.80;109.95;;;;;;;6.25;96.71;99963.09;343798;28;1256;-73
2022/01/08 00:04:23;;;;;;;356.47;106.30;;;;;;;6.28;97.06;99972.59;343903;28;887;-73
2022/01/08 00:04:33;;;;;;;359.65;107.03;;;;;;;6.28;96.82;99967.38;341316;29;846;-73
2022/01/08 00:04:43;;;;;;;361.93;106.60;;;;;;;6.27;96.82;99966.53;341293;29;1023;-73
2022/01/08 00:04:54;;;;;;;363.35;107.55;;;;;;;6.26;96.56;99970.00;340778;29;1312;-73
2022/01/08 00:05:04;;;;;;;360.80;106.63;;;;;;;6.28;97.00;99972.59;343953;28;774;-73
2022/01/08 00:05:15;;;;;;;360.90;107.95;;;;;;;6.29;97.20;99975.16;342568;28;1008;-73
2022/01/08 00:05:25;;;;;;;361.50;108.10;;;;;;;6.26;97.14;99970.00;343925;28;845;-73
2022/01/08 00:05:36;;;;;;;361.50;107.85;;;;;;;6.27;97.15;99971.72;342014;28;1739;-73
2022/01/08 00:05:48;;;;;;;361.57;110.50;;;;;;;6.27;96.68;99969.13;339963;29;908;-73
2022/01/08 00:05:58;;;;;;;361.45;110.22;;;;;;;6.28;97.15;99968.25;339883;29;942;-73
2022/01/08 00:06:09;;;;;;;361.73;110.20;;;;;;;6.27;96.68;99971.72;339918;29;806;-73
2022/01/08 00:06:19;;;;;;;361.00;108.53;;;;;;;6.26;96.64;99972.59;339944;29;996;-73
2022/01/08 00:06:29;;;;;;;362.35;108.65;;;;;;;6.25;97.21;99972.63;342627;28;798;-73
2022/01/08 00:06:40;;;;;;;360.27;107.70;;;;;;;6.26;96.67;99972.59;343722;28;1209;-73
2022/01/08 00:06:50;;;;;;;359.25;106.57;;;;;;;6.23;97.32;99967.47;343864;28;959;-73
2022/01/08 00:07:01;;;;;;;360.13;108.17;;;;;;;6.22;96.88;99970.94;342600;28;1593;-73
2022/01/08 00:07:11;;;;;;;359.02;106.00;;;;;;;6.24;97.40;99971.78;341431;29;810;-73
2022/01/08 00:07:21;;;;;;;358.00;108.67;;;;;;;6.25;97.24;99973.50;339939;29;902;-73
2022/01/08 00:07:32;;;;;;;358.23;109.05;;;;;;;6.25;97.35;99968.28;341308;28;1323;-73
2022/01/08 00:07:42;;;;;;;360.83;110.20;;;;;;;6.24;97.15;99963.97;341261;29;1002;-73
2022/01/08 00:07:54;;;;;;;360.65;107.43;;;;;;;6.25;97.17;99970.03;342519;28;1237;-73
2022/01/08 00:08:05;;;;;;;363.10;107.68;;;;;;;6.23;97.04;99970.06;342516;28;1308;-73
2022/01/08 00:08:16;;;;;;;363.48;108.80;;;;;;;6.23;97.54;99974.41;342549;28;1914;-74
2022/01/08 00:08:26;;;;;;;360.90;107.07;;;;;;;6.23;97.50;99971.81;342402;28;893;-74
2022/01/08 00:08:36;;;;;;;361.08;107.47;;;;;;;6.24;97.37;99979.56;342592;28;908;-74
2022/01/08 00:08:48;;;;;;;363.10;107.83;;;;;;;6.24;97.56;99971.78;338679;28;1303;-74
2022/01/08 00:08:59;;;;;;;364.33;108.93;;;;;;;6.26;97.25;99980.41;341317;29;921;-74
2022/01/08 00:09:09;;;;;;;362.17;108.13;;;;;;;6.27;97.43;99971.72;341279;29;947;-74
2022/01/08 00:09:20;;;;;;;359.27;106.83;;;;;;;6.27;97.26;99974.31;344030;28;773;-74
2022/01/08 00:09:30;;;;;;;357.52;106.22;;;;;;;6.27;97.54;99969.13;343987;28;884;-74
2022/01/08 00:09:40;;;;;;;360.10;108.00;;;;;;;6.29;97.36;99974.28;338690;29;1300;-74
2022/01/08 00:09:51;;;;;;;360.17;108.15;;;;;;;6.28;97.72;99970.84;343821;28;1698;-74
2022/01/08 00:10:01;;;;;;;361.10;108.97;;;;;;;6.28;97.62;99976.03;345105;28;1266;-74
2022/01/08 00:10:12;;;;;;;360.70;108.47;;;;;;;6.28;97.18;99972.59;341011;29;1856;-74
2022/01/08 00:10:22;;;;;;;363.07;111.00;;;;;;;6.29;97.37;99974.28;341351;29;915;-74
2022/01/08 00:10:33;;;;;;;362.25;110.32;;;;;;;6.28;97.20;99970.84;342534;28;1065;-74
2022/01/08 00:10:43;;;;;;;360.87;111.77;;;;;;;6.28;97.55;99973.44;342628;28;1410;-74
2022/01/08 00:10:54;;;;;;;357.77;109.60;;;;;;;6.29;96.94;99976.91;338732;29;998;-74
2022/01/08 00:11:07;;;;;;;356.13;108.40;;;;;;;6.28;97.38;99965.63;341114;28;1432;-74
2022/01/08 00:11:20;;;;;;;358.52;107.35;;;;;;;6.26;97.11;99970.00;342638;28;873;-73
2022/01/08 00:11:31;;;;;;;362.75;107.15;;;;;;;6.27;97.30;99969.13;339953;29;1014;-73
2022/01/08 00:11:42;;;;;;;365.23;108.78;;;;;;;6.26;97.46;99975.22;338542;28;1241;-73
2022/01/08 00:11:53;;;;;;;363.02;107.70;;;;;;;6.24;97.09;99971.78;343818;28;1461;-73
2022/01/08 00:12:03;;;;;;;362.45;107.55;;;;;;;6.26;97.20;99970.00;343092;28;1204;-73
2022/01/08 00:12:14;;;;;;;360.52;106.78;;;;;;;6.26;97.64;99971.75;341361;29;877;-73
2022/01/08 00:12:24;;;;;;;359.43;107.10;;;;;;;6.25;96.97;99976.09;338550;28;1330;-72
2022/01/08 00:12:35;;;;;;;358.95;106.38;;;;;;;6.26;97.20;99980.41;341204;28;1098;-72
2022/01/08 00:12:45;;;;;;;357.77;106.27;;;;;;;6.26;97.18;99969.16;343901;28;1311;-72
2022/01/08 00:13:01;;;;;;;356.27;104.80;;;;;;;6.25;97.20;99970.88;343777;28;1483;-73
2022/01/08 00:13:11;;;;;;;358.23;106.45;;;;;;;6.25;97.21;99973.50;341294;28;1211;-73
2022/01/08 00:13:21;;;;;;;363.50;108.47;;;;;;;6.27;97.52;99976.06;341320;28;1231;-73
2022/01/08 00:13:32;;;;;;;364.47;107.53;;;;;;;6.27;97.18;99974.31;343897;28;886;-73
2022/01/08 00:13:42;;;;;;;363.73;107.97;;;;;;;6.28;97.16;99978.63;342611;28;924;-73
2022/01/08 00:13:53;;;;;;;360.73;105.67;;;;;;;6.27;97.01;99965.66;341186;28;1339;-73
2022/01/08 00:14:05;;;;;;;358.00;105.80;;;;;;;6.27;97.43;99976.91;341139;29;994;-73
2022/01/08 00:14:16;;;;;;;355.90;103.50;;;;;;;6.28;97.63;99970.84;343982;28;911;-73
2022/01/08 00:14:28;;;;;;;354.40;104.28;;;;;;;6.27;97.29;99971.72;345255;28;848;-73
2022/01/08 00:14:39;;;;;;;353.48;104.43;;;;;;;6.29;97.41;99980.34;343895;28;1486;-73
2022/01/08 00:14:49;;;;;;;354.58;104.97;;;;;;;6.27;97.06;99969.13;342624;28;844;-73
2022/01/08 00:14:59;;;;;;;354.83;103.27;;;;;;;6.27;97.08;99978.66;344010;28;1103;-73
2022/01/08 00:15:10;;;;;;;355.23;104.43;;;;;;;6.23;97.25;99970.06;343851;28;972;-73
2022/01/08 00:15:22;;;;;;;353.43;103.47;;;;;;;6.24;97.01;99971.78;345361;28;969;-73
2022/01/08 00:15:32;;;;;;;353.58;103.90;;;;;;;6.21;97.19;99966.63;345231;28;1033;-73
2022/01/08 00:15:43;;;;;;;354.52;104.65;;;;;;;6.24;97.33;99973.50;343912;28;1991;-73
2022/01/08 00:15:53;;;;;;;357.67;108.45;;;;;;;6.24;96.86;99973.50;341143;29;877;-73
2022/01/08 00:16:04;;;;;;;358.10;108.93;;;;;;;6.26;96.94;99975.22;339870;29;992;-73
2022/01/08 00:16:14;;;;;;;358.15;109.30;;;;;;;6.26;96.93;99975.22;339925;29;898;-73
2022/01/08 00:16:25;;;;;;;359.20;108.27;;;;;;;6.26;97.37;99975.22;341284;29;896;-73
2022/01/08 00:16:37;;;;;;;360.92;109.45;;;;;;;6.27;96.88;99971.72;344526;28;1574;-73
2022/01/08 00:16:48;;;;;;;357.90;106.60;;;;;;;6.26;97.21;99975.22;342635;28;859;-73
2022/01/08 00:16:59;;;;;;;354.63;104.10;;;;;;;6.26;97.25;99970.00;342613;28;806;-74
2022/01/08 00:17:09;;;;;;;354.70;104.72;;;;;;;6.26;96.84;99964.81;343980;28;849;-74
2022/01/08 00:17:22;;;;;;;355.63;106.47;;;;;;;6.26;96.89;99977.81;339911;28;1501;-73
2022/01/08 00:17:33;;;;;;;355.70;105.40;;;;;;;6.25;96.93;99972.63;343996;28;872;-72
2022/01/08 00:17:44;;;;;;;355.88;104.65;;;;;;;6.25;97.19;99973.50;343963;28;1007;-73
2022/01/08 00:17:54;;;;;;;355.53;105.80;;;;;;;6.23;97.32;99975.25;343977;28;853;-73
2022/01/08 00:18:05;;;;;;;359.50;108.32;;;;;;;6.22;97.00;99975.28;338558;29;1691;-73
2022/01/08 00:18:15;;;;;;;360.87;108.53;;;;;;;6.19;96.97;99973.59;340592;28;1677;-73
2022/01/08 00:18:25;;;;;;;362.33;108.00;;;;;;;6.23;97.26;99970.06;343891;28;1232;-73
2022/01/08 00:18:36;;;;;;;359.17;105.00;;;;;;;6.19;96.79;99971.00;343969;28;2373;-73
2022/01/08 00:18:46;;;;;;;356.90;105.38;;;;;;;6.21;96.82;99974.44;342622;28;809;-73
2022/01/08 00:18:56;;;;;;;356.53;107.10;;;;;;;6.19;96.82;99968.41;343931;28;1425;-73
2022/01/08 00:19:07;;;;;;;357.23;107.33;;;;;;;6.18;96.85;99969.28;341290;29;941;-73
2022/01/08 00:19:17;;;;;;;356.47;105.23;;;;;;;6.20;97.06;99975.31;340046;29;917;-73
2022/01/08 00:19:28;;;;;;;357.42;104.32;;;;;;;6.19;97.35;99975.34;339808;29;1358;-73
2022/01/08 00:19:38;;;;;;;356.20;105.20;;;;;;;6.20;97.00;99977.06;339829;29;1229;-73
2022/01/08 00:19:50;;;;;;;360.35;108.25;;;;;;;6.19;97.31;99971.00;342779;28;877;-73
2022/01/08 00:20:00;;;;;;;360.48;109.63;;;;;;;6.19;97.28;99973.59;342492;28;1653;-73
2022/01/08 00:20:11;;;;;;;360.83;109.15;;;;;;;6.18;97.01;99977.06;343957;28;881;-73
2022/01/08 00:20:22;;;;;;;356.02;105.57;;;;;;;6.19;97.32;99973.59;341255;28;1205;-73
2022/01/08 00:20:33;;;;;;;354.20;104.18;;;;;;;6.17;97.34;99975.38;341068;29;1922;-73
2022/01/08 00:20:43;;;;;;;355.58;104.75;;;;;;;6.19;97.04;99978.78;342521;28;1232;-73
2022/01/08 00:20:54;;;;;;;359.97;106.07;;;;;;;6.19;97.44;99977.94;340012;28;1138;-73
2022/01/08 00:21:04;;;;;;;362.67;107.40;;;;;;;6.20;97.20;99977.91;344078;28;782;-73
2022/01/08 00:21:15;;;;;;;363.30;108.17;;;;;;;6.20;97.08;99972.72;341342;29;904;-73
2022/01/08 00:21:25;;;;;;;360.48;108.80;;;;;;;6.21;97.16;99976.16;343819;28;1332;-73
2022/01/08 00:21:35;;;;;;;359.47;108.30;;;;;;;6.21;97.16;99971.81;345275;28;1191;-73
2022/01/08 00:21:46;;;;;;;357.27;106.72;;;;;;;6.22;97.08;99976.13;342671;28;953;-73
2022/01/08 00:21:56;;;;;;;358.33;106.47;;;;;;;6.22;97.28;99981.34;342609;28;862;-73
2022/01/08 00:22:08;;;;;;;359.80;106.50;;;;;;;6.22;96.96;99973.53;342491;28;1196;-73
2022/01/08 00:22:18;;;;;;;361.77;107.85;;;;;;;6.22;97.28;99975.28;343980;28;1595;-73
2022/01/08 00:22:29;;;;;;;360.08;107.35;;;;;;;6.23;96.89;99972.66;341391;29;870;-73
2022/01/08 00:22:39;;;;;;;358.70;106.30;;;;;;;6.22;97.04;99973.53;340059;29;1926;-73
2022/01/08 00:22:51;;;;;;;360.53;106.80;;;;;;;6.20;96.78;99972.72;341605;28;2037;-73
2022/01/08 00:23:02;;;;;;;361.33;106.97;;;;;;;6.22;97.28;99978.75;342648;28;826;-73
2022/01/08 00:23:12;;;;;;;362.85;108.05;;;;;;;6.21;97.59;99977.03;343789;28;1588;-73
2022/01/08 00:23:23;;;;;;;359.83;106.90;;;;;;;6.20;97.56;99971.84;343802;28;857;-73
2022/01/08 00:23:33;;;;;;;360.33;107.65;;;;;;;6.22;97.19;99978.75;341291;29;806;-73
2022/01/08 00:23:44;;;;;;;358.87;108.27;;;;;;;6.21;97.56;99971.81;342623;28;1237;-73
2022/01/08 00:23:54;;;;;;;359.60;107.63;;;;;;;6.21;97.17;99971.81;341301;29;836;-73
2022/01/08 00:24:05;;;;;;;357.50;105.33;;;;;;;6.22;97.07;99973.53;343975;28;955;-73
2022/01/08 00:24:15;;;;;;;356.83;103.03;;;;;;;6.22;97.18;99973.53;342543;28;1306;-73
2022/01/08 00:24:26;;;;;;;358.43;104.87;;;;;;;6.21;97.43;99977.03;342579;28;1290;-73
2022/01/08 00:24:36;;;;;;;359.27;105.50;;;;;;;6.21;97.29;99969.22;341315;29;804;-73
2022/01/08 00:24:47;;;;;;;359.87;105.43;;;;;;;6.22;97.60;99976.13;344002;28;847;-73
2022/01/08 00:24:57;;;;;;;360.40;105.77;;;;;;;6.22;97.39;99970.94;341251;28;1228;-73
2022/01/08 00:25:09;;;;;;;361.77;107.33;;;;;;;6.22;97.57;99977.88;342702;28;948;-73
2022/01/08 00:25:19;;;;;;;363.95;110.45;;;;;;;6.23;97.69;99974.41;343986;28;1121;-73
2022/01/08 00:25:30;;;;;;;362.13;110.30;;;;;;;6.21;97.83;99977.03;344000;28;888;-73
2022/01/08 00:25:40;;;;;;;361.93;110.67;;;;;;;6.19;97.42;99968.41;343931;28;853;-73
2022/01/08 00:25:50;;;;;;;360.05;108.10;;;;;;;6.20;97.66;99975.31;342569;28;1230;-73
2022/01/08 00:26:03;;;;;;;358.13;107.57;;;;;;;6.19;97.45;99968.41;341107;29;889;-73
2022/01/08 00:26:14;;;;;;;358.88;108.40;;;;;;;6.19;97.50;99971.00;341393;29;909;-73
2022/01/08 00:26:24;;;;;;;359.50;108.47;;;;;;;6.20;97.86;99967.50;343884;28;842;-73
2022/01/08 00:26:34;;;;;;;359.90;107.73;;;;;;;6.21;98.11;99971.81;344484;28;1317;-73
2022/01/08 00:26:45;;;;;;;358.70;107.70;;;;;;;6.22;97.96;99964.88;342501;28;1527;-73
2022/01/08 00:26:55;;;;;;;358.58;107.45;;;;;;;6.20;97.73;99972.72;339938;28;1205;-73
2022/01/08 00:27:05;;;;;;;357.67;106.27;;;;;;;6.19;97.95;99965.81;342542;28;1512;-73
2022/01/08 00:27:16;;;;;;;357.50;104.38;;;;;;;6.19;98.03;99971.00;342644;28;1306;-73
2022/01/08 00:27:26;;;;;;;357.50;104.00;;;;;;;6.18;98.21;99974.47;343906;28;856;-73
2022/01/08 00:27:37;;;;;;;355.88;103.75;;;;;;;6.20;97.65;99969.25;342493;28;1513;-73
2022/01/08 00:27:47;;;;;;;355.83;105.70;;;;;;;6.19;97.70;99968.41;342577;28;1082;-73
2022/01/08 00:27:58;;;;;;;355.55;105.85;;;;;;;6.19;97.76;99971.00;341311;29;889;-73
2022/01/08 00:28:08;;;;;;;358.10;105.77;;;;;;;6.17;97.93;99964.97;342555;28;1288;-73
2022/01/08 00:28:18;;;;;;;358.08;104.43;;;;;;;6.18;98.02;99973.63;344008;28;880;-73
2022/01/08 00:28:29;;;;;;;359.00;105.53;;;;;;;6.18;98.18;99965.81;341198;28;1244;-73
2022/01/08 00:28:39;;;;;;;357.50;105.13;;;;;;;6.15;97.79;99961.53;341239;29;969;-73
2022/01/08 00:28:50;;;;;;;358.20;107.00;;;;;;;6.18;97.73;99961.47;342710;28;1509;-73
2022/01/08 00:29:00;;;;;;;359.02;107.70;;;;;;;6.17;98.08;99962.38;342656;28;1384;-73
2022/01/08 00:29:11;;;;;;;358.37;108.17;;;;;;;6.18;97.98;99966.69;345405;28;933;-73
2022/01/08 00:29:21;;;;;;;358.52;106.50;;;;;;;6.17;97.80;99967.56;344043;28;845;-73
2022/01/08 00:29:31;;;;;;;357.50;105.97;;;;;;;6.17;97.71;99962.38;343945;28;988;-73
2022/01/08 00:29:42;;;;;;;357.90;106.20;;;;;;;6.17;98.11;99964.97;341263;28;1322;-73
2022/01/08 00:29:52;;;;;;;358.13;107.03;;;;;;;6.18;97.68;99971.88;337114;29;1948;-73
2022/01/08 00:30:03;;;;;;;357.65;107.60;;;;;;;6.17;97.49;99964.97;341170;29;1456;-73
2022/01/08 00:30:14;;;;;;;357.98;106.18;;;;;;;6.15;98.09;99961.53;342717;28;1086;-73
2022/01/08 00:30:24;;;;;;;357.50;104.87;;;;;;;6.19;98.16;99967.53;342566;28;860;-73
2022/01/08 00:30:35;;;;;;;359.38;102.95;;;;;;;6.19;98.03;99968.41;341274;29;1492;-73
2022/01/08 00:30:47;;;;;;;360.23;104.27;;;;;;;6.18;97.94;99971.03;341207;29;952;-73
2022/01/08 00:30:57;;;;;;;359.75;106.03;;;;;;;6.18;97.97;99961.47;342604;28;901;-73
2022/01/08 00:31:10;;;;;;;357.73;108.33;;;;;;;6.17;97.62;99958.91;343979;28;1434;-73
2022/01/08 00:31:20;;;;;;;358.27;107.53;;;;;;;6.15;98.15;99964.13;343864;28;940;-73
2022/01/08 00:31:31;;;;;;;358.20;106.63;;;;;;;6.19;97.87;99967.53;342467;28;1570;-73
2022/01/08 00:31:41;;;;;;;358.20;106.75;;;;;;;6.18;98.06;99966.69;341178;29;917;-73
2022/01/08 00:31:52;;;;;;;354.13;104.77;;;;;;;6.17;98.04;99958.91;342629;28;1216;-73
2022/01/08 00:32:02;;;;;;;353.30;104.05;;;;;;;6.15;97.86;99958.06;343928;28;920;-73
2022/01/08 00:32:14;;;;;;;352.48;102.47;;;;;;;6.13;98.17;99952.91;344025;28;834;-73
2022/01/08 00:32:26;;;;;;;352.92;102.93;;;;;;;6.16;98.31;99959.78;343927;28;979;-73
2022/01/08 00:32:36;;;;;;;355.33;104.38;;;;;;;6.13;97.83;99955.50;341195;29;1062;-73
2022/01/08 00:32:46;;;;;;;358.42;107.60;;;;;;;6.14;98.13;99954.63;342117;28;1552;-72
2022/01/08 00:32:59;;;;;;;358.20;107.73;;;;;;;6.15;97.97;99961.53;344001;28;852;-72
2022/01/08 00:33:09;;;;;;;356.55;106.30;;;;;;;6.15;97.85;99953.75;344726;28;1518;-73
2022/01/08 00:33:20;;;;;;;356.83;105.07;;;;;;;6.15;97.86;99956.34;343928;28;1259;-73
2022/01/08 00:33:31;;;;;;;357.10;104.68;;;;;;;6.15;98.27;99953.75;339915;29;1236;-73
2022/01/08 00:33:41;;;;;;;358.42;104.47;;;;;;;6.14;98.08;99954.63;343836;28;1360;-72
2022/01/08 00:33:53;;;;;;;360.43;105.87;;;;;;;6.14;98.28;99959.81;343983;28;880;-72
2022/01/08 00:34:03;;;;;;;360.20;106.20;;;;;;;6.08;98.12;99957.31;345273;28;938;-72
2022/01/08 00:34:14;;;;;;;359.57;107.03;;;;;;;6.11;98.49;99953.81;342560;28;1348;-73
2022/01/08 00:34:24;;;;;;;360.98;106.80;;;;;;;6.11;98.37;99954.69;342669;28;1047;-73
2022/01/08 00:34:34;;;;;;;364.27;108.93;;;;;;;6.12;98.25;99953.78;339849;28;1204;-72
2022/01/08 00:34:45;;;;;;;362.23;107.78;;;;;;;6.12;98.26;99951.19;341283;29;866;-72
2022/01/08 00:34:55;;;;;;;359.03;105.03;;;;;;;6.12;98.24;99956.38;342617;28;1327;-72
2022/01/08 00:35:08;;;;;;;356.77;105.57;;;;;;;6.12;97.96;99950.34;342683;28;829;-73
2022/01/08 00:35:18;;;;;;;356.58;105.40;;;;;;;6.12;98.10;99951.19;343876;28;912;-73
2022/01/08 00:35:29;;;;;;;354.65;104.97;;;;;;;6.14;97.91;99956.38;339940;29;1263;-73
2022/01/08 00:35:40;;;;;;;354.38;104.68;;;;;;;6.15;98.02;99952.88;341308;29;921;-73
2022/01/08 00:35:50;;;;;;;356.23;104.77;;;;;;;6.14;97.89;99954.63;339901;29;1301;-73
2022/01/08 00:36:01;;;;;;;358.83;105.90;;;;;;;6.14;97.81;99954.63;339857;29;2078;-73
2022/01/08 00:36:11;;;;;;;359.33;106.07;;;;;;;6.15;98.37;99956.34;342623;28;974;-73
2022/01/08 00:36:21;;;;;;;357.15;107.88;;;;;;;6.12;98.00;99956.38;342548;28;1345;-73
2022/01/08 00:36:32;;;;;;;356.60;108.00;;;;;;;6.13;97.85;99952.91;341930;28;1185;-73
2022/01/08 00:36:42;;;;;;;355.25;107.82;;;;;;;6.15;98.01;99953.75;341244;28;1275;-73
2022/01/08 00:36:52;;;;;;;356.80;106.87;;;;;;;6.15;98.19;99961.53;342483;28;1288;-73
2022/01/08 00:37:03;;;;;;;356.77;106.30;;;;;;;6.14;98.16;99957.22;342578;28;1340;-73
2022/01/08 00:37:13;;;;;;;356.57;105.87;;;;;;;6.14;98.02;99954.63;342600;28;891;-73
2022/01/08 00:37:24;;;;;;;356.75;104.28;;;;;;;6.14;98.38;99956.38;341336;29;1025;-73
2022/01/08 00:37:37;;;;;;;357.90;105.47;;;;;;;6.13;97.83;99952.91;342437;28;1209;-73
2022/01/08 00:37:47;;;;;;;358.55;104.65;;;;;;;6.11;98.16;99953.81;338616;29;906;-73
2022/01/08 00:37:57;;;;;;;357.40;104.53;;;;;;;6.12;98.10;99961.59;339916;29;825;-73
2022/01/08 00:38:08;;;;;;;356.13;103.47;;;;;;;6.11;98.15;99951.22;340996;28;1194;-73
2022/01/08 00:38:18;;;;;;;355.17;104.57;;;;;;;6.11;98.30;99949.47;342516;28;1293;-73
2022/01/08 00:38:29;;;;;;;355.13;104.13;;;;;;;6.14;98.49;99958.97;342501;28;909;-73
2022/01/08 00:38:39;;;;;;;354.60;104.33;;;;;;;6.12;97.97;99956.38;339917;29;898;-73
2022/01/08 00:38:49;;;;;;;356.73;105.68;;;;;;;6.13;98.26;99958.09;339976;29;838;-73
2022/01/08 00:39:00;;;;;;;356.23;105.47;;;;;;;6.14;98.27;99958.97;342709;28;921;-73
2022/01/08 00:39:10;;;;;;;359.98;106.20;;;;;;;6.14;98.00;99954.63;342695;28;999;-73
2022/01/08 00:39:21;;;;;;;360.17;104.47;;;;;;;6.15;97.93;99953.75;341519;29;842;-73
2022/01/08 00:39:31;;;;;;;357.65;102.97;;;;;;;6.15;98.12;99955.47;341253;29;996;-73
2022/01/08 00:39:41;;;;;;;353.33;102.70;;;;;;;6.17;98.68;99957.16;341133;29;1197;-73
2022/01/08 00:39:52;;;;;;;350.83;102.75;;;;;;;6.16;98.61;99946.81;340095;29;888;-73
2022/01/08 00:40:04;;;;;;;352.30;103.50;;;;;;;6.17;98.10;99953.72;339936;29;981;-73
2022/01/08 00:40:15;;;;;;;353.08;102.45;;;;;;;6.15;98.18;99951.16;342486;28;1034;-73
2022/01/08 00:40:25;;;;;;;354.30;103.63;;;;;;;6.16;98.16;99954.59;343970;28;1349;-73
2022/01/08 00:40:35;;;;;;;354.08;103.05;;;;;;;6.17;98.38;99959.78;341132;28;1906;-73
2022/01/08 00:40:46;;;;;;;354.00;105.30;;;;;;;6.17;98.16;99945.91;341157;29;1524;-73
2022/01/08 00:40:56;;;;;;;353.98;103.65;;;;;;;6.18;97.82;99956.28;343945;28;1078;-73
2022/01/08 00:41:07;;;;;;;354.70;103.07;;;;;;;6.18;98.26;99952.84;344058;28;1280;-73
2022/01/08 00:41:17;;;;;;;355.38;103.20;;;;;;;6.16;97.78;99955.47;343912;28;1348;-73
2022/01/08 00:41:27;;;;;;;355.77;103.93;;;;;;;6.15;98.20;99945.94;344189;28;1401;-73
2022/01/08 00:41:38;;;;;;;355.67;105.20;;;;;;;6.14;98.24;99954.63;339942;28;1363;-73
2022/01/08 00:41:48;;;;;;;355.98;104.40;;;;;;;6.14;98.13;99957.22;342643;28;948;-73
2022/01/08 00:41:59;;;;;;;356.40;105.13;;;;;;;6.15;97.98;99956.34;343892;28;1912;-73
2022/01/08 00:42:09;;;;;;;354.25;103.30;;;;;;;6.16;97.90;99952.00;343918;28;1330;-73
2022/01/08 00:42:19;;;;;;;352.83;102.43;;;;;;;6.15;97.96;99956.34;339944;29;1851;-73
2022/01/08 00:42:30;;;;;;;350.95;100.97;;;;;;;6.16;98.09;99958.06;338704;29;1020;-73
2022/01/08 00:42:40;;;;;;;350.10;101.07;;;;;;;6.17;98.24;99954.56;337270;29;976;-73
2022/01/08 00:42:50;;;;;;;348.30;100.60;;;;;;;6.16;98.25;99958.06;340005;29;889;-73
2022/01/08 00:43:01;;;;;;;349.67;101.80;;;;;;;6.15;98.12;99948.53;341316;28;1314;-73
2022/01/08 00:43:11;;;;;;;349.50;101.47;;;;;;;6.17;97.94;99954.56;340182;28;1281;-73
2022/01/08 00:43:22;;;;;;;348.80;100.63;;;;;;;6.17;97.87;99953.72;342953;28;1566;-73
2022/01/08 00:43:32;;;;;;;348.10;100.07;;;;;;;6.17;98.08;99944.19;344319;28;1750;-73
2022/01/08 00:43:42;;;;;;;350.20;101.45;;;;;;;6.17;98.32;99954.56;345424;28;2262;-73
2022/01/08 00:43:54;;;;;;;352.37;101.47;;;;;;;6.18;97.69;99950.22;341479;28;1204;-73
2022/01/08 00:44:04;;;;;;;353.52;103.20;;;;;;;6.18;97.95;99945.91;341746;29;969;-72
2022/01/08 00:44:16;;;;;;;352.80;100.87;;;;;;;6.18;97.69;99948.50;338864;29;829;-72
2022/01/08 00:44:26;;;;;;;353.25;101.75;;;;;;;6.19;97.75;99952.81;340382;29;2010;-72
2022/01/08 00:44:37;;;;;;;352.40;101.77;;;;;;;6.18;98.10;99948.50;344410;28;1304;-72
2022/01/08 00:44:47;;;;;;;349.90;103.15;;;;;;;6.18;97.87;99945.03;344301;28;1341;-74
2022/01/08 00:44:57;;;;;;;350.73;103.60;;;;;;;6.20;97.62;99944.13;344162;28;1266;-73
2022/01/08 00:45:08;;;;;;;350.70;103.20;;;;;;;6.19;97.86;99952.81;342715;28;1040;-73
2022/01/08 00:45:18;;;;;;;352.10;102.10;;;;;;;6.20;97.85;99954.53;341503;29;802;-72
2022/01/08 00:45:29;;;;;;;352.00;102.07;;;;;;;6.21;97.80;99950.19;342645;28;1405;-72
2022/01/08 00:45:39;;;;;;;352.27;101.97;;;;;;;6.20;98.07;99949.31;344209;28;1008;-73
2022/01/08 00:45:49;;;;;;;351.27;102.97;;;;;;;6.19;97.67;99950.22;341256;29;1260;-71
2022/01/08 00:46:00;;;;;;;350.90;101.70;;;;;;;6.20;98.29;99951.91;342561;28;1282;-71
2022/01/08 00:46:10;;;;;;;351.58;100.75;;;;;;;6.19;97.74;99944.16;344141;28;1212;-73
2022/01/08 00:46:21;;;;;;;353.20;101.57;;;;;;;6.21;97.86;99951.03;341790;29;1975;-73
2022/01/08 00:46:31;;;;;;;354.17;102.03;;;;;;;6.22;97.87;99957.09;343077;28;1007;-73
2022/01/08 00:46:42;;;;;;;351.87;102.80;;;;;;;6.20;97.73;99948.47;342720;28;1179;-73
2022/01/08 00:46:52;;;;;;;353.38;101.90;;;;;;;6.21;97.65;99945.84;341656;29;838;-70
2022/01/08 00:47:03;;;;;;;351.60;102.13;;;;;;;6.22;97.65;99951.91;341448;29;861;-73
2022/01/08 00:47:13;;;;;;;351.97;101.37;;;;;;;6.22;97.82;99946.69;338951;29;1076;-73
2022/01/08 00:47:24;;;;;;;349.17;100.90;;;;;;;6.20;97.51;99949.31;341346;29;793;-73
2022/01/08 00:47:34;;;;;;;349.20;101.27;;;;;;;6.23;97.80;99948.41;342535;28;1028;-73
2022/01/08 00:47:45;;;;;;;351.23;103.18;;;;;;;6.21;97.94;99945.84;345318;28;991;-73
2022/01/08 00:47:55;;;;;;;352.33;102.83;;;;;;;6.21;98.05;99951.03;341224;28;1432;-73
2022/01/08 00:48:05;;;;;;;352.45;102.50;;;;;;;6.22;97.87;99950.16;343679;28;1926;-73
2022/01/08 00:48:16;;;;;;;351.80;103.73;;;;;;;6.22;97.97;99946.69;343942;28;1307;-73
2022/01/08 00:48:26;;;;;;;352.07;104.47;;;;;;;6.22;97.77;99952.75;343708;28;2010;-73
2022/01/08 00:48:36;;;;;;;354.45;103.93;;;;;;;6.22;97.53;99947.56;343856;28;2212;-74
2022/01/08 00:48:47;;;;;;;353.63;102.13;;;;;;;6.22;98.00;99952.75;342689;28;992;-73
2022/01/08 00:48:57;;;;;;;353.25;103.05;;;;;;;6.21;97.68;99945.84;341381;29;856;-72
2022/01/08 00:49:08;;;;;;;352.10;103.13;;;;;;;6.20;97.77;99944.13;342794;28;861;-72
2022/01/08 00:49:18;;;;;;;352.00;102.60;;;;;;;6.23;97.88;99949.28;341265;28;1337;-72
2022/01/08 00:49:28;;;;;;;354.00;104.33;;;;;;;6.21;97.54;99945.84;341039;28;1079;-73
2022/01/08 00:49:39;;;;;;;353.90;104.63;;;;;;;6.23;97.89;99944.06;341186;28;1249;-73
2022/01/08 00:49:49;;;;;;;354.73;105.20;;;;;;;6.23;97.89;99948.41;343868;28;1521;-73